Time;durP1;ratioP1;P1;durP2;ratioP2;P2;SDS_P1;SDS_P2;PMS_P1;PMS_P2;Temp;Humidity;BMP_temperature;BMP_pressure;BME280_temperature;BME280_humidity;BME280_pressure;Samples;Min_cycle;Max_cycle;Signal;HPM_P1;HPM_P2
2023/06/28 00:02:10;;;;;;;1.17;1.10;;;;;17.60;96266.00;;;;5036528;28;20193;-56
2023/06/28 00:04:37;;;;;;;0.83;0.83;;;;;17.60;96261.00;;;;5036469;28;20216;-56
2023/06/28 00:07:07;;;;;;;0.90;0.90;;;;;17.60;96258.00;;;;5036453;28;20300;-56
2023/06/28 00:09:34;;;;;;;0.83;0.83;;;;;17.60;96260.00;;;;5036333;28;20191;-56
2023/06/28 00:12:03;;;;;;;0.60;0.60;;;;;17.60;96259.00;;;;5036320;28;20193;-57
2023/06/28 00:14:31;;;;;;;0.70;0.70;;;;;17.70;96266.00;;;;5036213;28;20293;-56
2023/06/28 00:16:59;;;;;;;0.73;0.73;;;;;17.60;96266.00;;;;5036389;28;20196;-56
2023/06/28 00:19:27;;;;;;;0.50;0.50;;;;;17.60;96263.00;;;;5034784;28;20594;-56
2023/06/28 00:21:55;;;;;;;0.80;0.80;;;;;17.60;96271.00;;;;5034846;28;20292;-56
2023/06/28 00:24:22;;;;;;;0.67;0.67;;;;;17.30;96260.00;;;;5035967;28;20247;-56
2023/06/28 00:26:50;;;;;;;0.60;0.60;;;;;17.40;96261.00;;;;5037085;28;20201;-56
2023/06/28 00:29:17;;;;;;;0.87;0.87;;;;;17.50;96249.00;;;;5036014;28;20196;-56
2023/06/28 00:31:46;;;;;;;0.60;0.60;;;;;17.50;96264.00;;;;5036756;28;20193;-56
2023/06/28 00:34:14;;;;;;;0.90;0.90;;;;;17.50;96267.00;;;;5035879;28;20213;-56
2023/06/28 00:36:41;;;;;;;0.70;0.70;;;;;17.50;96275.00;;;;5035847;28;20196;-57
2023/06/28 00:39:09;;;;;;;0.73;0.73;;;;;17.50;96270.00;;;;5035750;28;20754;-57
2023/06/28 00:41:36;;;;;;;0.93;0.93;;;;;17.60;96266.00;;;;5035786;28;20200;-56
2023/06/28 00:44:06;;;;;;;0.60;0.60;;;;;17.60;96264.00;;;;5035878;28;20224;-56
2023/06/28 00:46:33;;;;;;;0.60;0.60;;;;;17.60;96266.00;;;;5035893;28;20207;-56
2023/06/28 00:49:02;;;;;;;0.90;0.90;;;;;17.60;96270.00;;;;5035600;28;20221;-57
2023/06/28 00:51:31;;;;;;;0.67;0.67;;;;;17.60;96268.00;;;;5035623;28;20193;-57
2023/06/28 00:53:59;;;;;;;0.67;0.67;;;;;17.60;96270.00;;;;5035484;28;20228;-56
2023/06/28 00:56:27;;;;;;;0.90;0.90;;;;;17.50;96263.00;;;;5035831;28;20241;-56
2023/06/28 00:58:55;;;;;;;0.63;0.63;;;;;17.40;96267.00;;;;5035429;28;20216;-56
2023/06/28 01:01:23;;;;;;;1.07;1.07;;;;;17.40;96267.00;;;;5035941;28;20200;-57
2023/06/28 01:03:51;;;;;;;0.80;0.80;;;;;17.40;96276.00;;;;5035421;28;20274;-56
2023/06/28 01:06:21;;;;;;;0.70;0.70;;;;;17.40;96273.00;;;;5034406;28;20222;-56
2023/06/28 01:08:49;;;;;;;0.70;0.70;;;;;17.40;96282.00;;;;5034013;28;20266;-56
2023/06/28 01:11:18;;;;;;;1.03;0.93;;;;;17.30;96289.00;;;;5035220;28;20201;-56
2023/06/28 01:13:47;;;;;;;0.70;0.70;;;;;17.20;96279.00;;;;5035158;28;20215;-56
2023/06/28 01:16:14;;;;;;;0.50;0.50;;;;;17.20;96277.00;;;;5035099;28;20192;-56
2023/06/28 01:18:42;;;;;;;1.00;1.00;;;;;17.20;96277.00;;;;5034910;28;20717;-56
2023/06/28 01:21:14;;;;;;;0.70;0.70;;;;;17.30;96287.00;;;;5035551;28;20197;-56
2023/06/28 01:23:43;;;;;;;0.63;0.63;;;;;17.30;96286.00;;;;5035223;28;20228;-56
2023/06/28 01:26:11;;;;;;;0.40;0.40;;;;;17.30;96284.00;;;;5035012;28;20197;-57
2023/06/28 01:28:39;;;;;;;0.63;0.63;;;;;17.30;96283.00;;;;5034923;28;20197;-56
2023/06/28 01:31:07;;;;;;;0.60;0.60;;;;;17.30;96276.00;;;;5034875;28;20197;-56
2023/06/28 01:33:34;;;;;;;0.83;0.83;;;;;17.30;96279.00;;;;5034734;28;20749;-56
2023/06/28 01:36:02;;;;;;;0.80;0.80;;;;;17.30;96273.00;;;;5034828;28;20193;-56
2023/06/28 01:38:31;;;;;;;0.70;0.70;;;;;17.20;96264.00;;;;5034643;28;20200;-56
2023/06/28 01:41:00;;;;;;;0.60;0.60;;;;;17.20;96274.00;;;;5034680;28;20200;-56
2023/06/28 01:43:27;;;;;;;0.83;0.83;;;;;17.20;96268.00;;;;5034573;28;20216;-56
2023/06/28 01:45:55;;;;;;;0.77;0.77;;;;;17.30;96267.00;;;;5034904;28;20219;-56
2023/06/28 01:48:23;;;;;;;1.00;1.00;;;;;17.30;96272.00;;;;5035060;28;20192;-56
2023/06/28 01:50:50;;;;;;;0.73;0.73;;;;;17.40;96266.00;;;;5034766;28;20201;-56
2023/06/28 01:53:18;;;;;;;0.53;0.53;;;;;17.30;96277.00;;;;5049779;23;20205;-55
2023/06/28 01:55:46;;;;;;;2.77;1.10;;;;;17.30;96267.00;;;;5054195;28;20192;-55
2023/06/28 01:58:15;;;;;;;0.63;0.63;;;;;17.30;96277.00;;;;5054086;28;20196;-55
2023/06/28 02:00:42;;;;;;;0.67;0.67;;;;;17.30;96275.00;;;;5053978;28;20219;-55
2023/06/28 02:03:09;;;;;;;0.50;0.50;;;;;17.20;96276.00;;;;5053955;28;20212;-55
2023/06/28 02:05:38;;;;;;;0.80;0.80;;;;;17.10;96271.00;;;;5054007;28;20196;-55
2023/06/28 02:08:05;;;;;;;0.70;0.70;;;;;17.20;96267.00;;;;5053919;28;20194;-55
2023/06/28 02:10:34;;;;;;;0.50;0.50;;;;;17.00;96273.00;;;;5053875;28;20192;-55
2023/06/28 02:13:01;;;;;;;0.70;0.70;;;;;17.00;96272.00;;;;5054078;28;20188;-56
2023/06/28 02:15:30;;;;;;;1.70;0.97;;;;;17.00;96271.00;;;;5053795;28;20196;-56
2023/06/28 02:17:58;;;;;;;0.50;0.50;;;;;16.90;96275.00;;;;5052484;28;20207;-56
2023/06/28 02:20:25;;;;;;;1.10;1.00;;;;;16.90;96269.00;;;;5053643;28;20289;-56
2023/06/28 02:22:53;;;;;;;2.83;1.03;;;;;16.90;96265.00;;;;5053612;28;20284;-56
2023/06/28 02:25:21;;;;;;;0.63;0.63;;;;;16.90;96269.00;;;;5053616;28;20196;-56
2023/06/28 02:27:48;;;;;;;1.03;0.93;;;;;16.90;96269.00;;;;5053588;28;20211;-56
2023/06/28 02:30:16;;;;;;;0.93;0.93;;;;;16.70;96265.00;;;;5053796;28;20188;-56
2023/06/28 02:32:45;;;;;;;0.90;0.90;;;;;16.70;96267.00;;;;5053728;28;20200;-56
2023/06/28 02:35:14;;;;;;;0.63;0.63;;;;;16.70;96267.00;;;;5053436;28;20212;-56
2023/06/28 02:37:45;;;;;;;0.50;0.50;;;;;16.60;96272.00;;;;5053334;28;20221;-56
2023/06/28 02:40:14;;;;;;;0.50;0.50;;;;;16.60;96271.00;;;;5052911;28;20232;-56
2023/06/28 02:42:42;;;;;;;1.00;1.00;;;;;16.60;96277.00;;;;5052000;28;20196;-54
2023/06/28 02:45:10;;;;;;;0.53;0.53;;;;;16.50;96272.00;;;;5053215;28;20236;-54
2023/06/28 02:47:38;;;;;;;0.50;0.50;;;;;16.50;96270.00;;;;5053255;28;20200;-55
2023/06/28 02:50:08;;;;;;;0.80;0.80;;;;;16.50;96271.00;;;;5053466;28;20188;-55
2023/06/28 02:52:35;;;;;;;0.50;0.50;;;;;16.70;96265.00;;;;5053113;28;20192;-55
2023/06/28 02:55:03;;;;;;;0.53;0.53;;;;;16.60;96265.00;;;;5052871;28;20226;-54
2023/06/28 02:57:30;;;;;;;0.70;0.70;;;;;16.50;96264.00;;;;5053015;28;20188;-55
2023/06/28 02:59:58;;;;;;;1.77;1.67;;;;;16.50;96265.00;;;;5053178;28;20278;-55
2023/06/28 03:02:25;;;;;;;2.70;1.47;;;;;16.40;96270.00;;;;5052942;28;20195;-55
2023/06/28 03:04:52;;;;;;;1.10;1.10;;;;;16.50;96265.00;;;;5052869;28;20571;-55
2023/06/28 03:07:21;;;;;;;0.70;0.70;;;;;16.40;96261.00;;;;5052913;28;20212;-55
2023/06/28 03:09:49;;;;;;;0.53;0.53;;;;;16.30;96267.00;;;;5052815;28;20647;-55
2023/06/28 03:12:16;;;;;;;0.70;0.70;;;;;16.30;96266.00;;;;5052887;28;20351;-55
2023/06/28 03:14:44;;;;;;;1.80;0.80;;;;;16.30;96257.00;;;;5052753;28;20220;-55
2023/06/28 03:17:11;;;;;;;0.60;0.60;;;;;16.40;96259.00;;;;5052824;28;20686;-55
2023/06/28 03:19:39;;;;;;;0.53;0.53;;;;;16.40;96260.00;;;;5052738;28;20223;-55
2023/06/28 03:22:06;;;;;;;1.30;1.17;;;;;16.50;96261.00;;;;5052720;28;20681;-55
2023/06/28 03:24:35;;;;;;;0.73;0.73;;;;;16.40;96253.00;;;;5052633;28;20219;-57
2023/06/28 03:27:03;;;;;;;0.60;0.60;;;;;16.40;96262.00;;;;5052646;28;20188;-55
2023/06/28 03:29:31;;;;;;;0.90;0.90;;;;;16.30;96258.00;;;;5054234;28;20192;-55
2023/06/28 03:31:58;;;;;;;0.70;0.70;;;;;16.30;96264.00;;;;5059622;28;20195;-55
2023/06/28 03:34:26;;;;;;;0.50;0.50;;;;;16.10;96255.00;;;;5059268;28;20223;-55
2023/06/28 03:36:53;;;;;;;0.60;0.60;;;;;16.20;96255.00;;;;5059241;28;20191;-55
2023/06/28 03:39:20;;;;;;;2.90;1.20;;;;;16.10;96261.00;;;;5059348;28;20226;-55
2023/06/28 03:41:49;;;;;;;1.00;1.00;;;;;16.10;96254.00;;;;5059233;28;20196;-55
2023/06/28 03:44:16;;;;;;;1.60;1.33;;;;;16.10;96255.00;;;;5059343;28;20216;-55
2023/06/28 03:46:44;;;;;;;0.60;0.60;;;;;16.10;96252.00;;;;5059475;28;20191;-56
2023/06/28 03:49:11;;;;;;;1.07;1.03;;;;;16.20;96258.00;;;;5059148;28;20199;-55
2023/06/28 03:51:39;;;;;;;0.70;0.70;;;;;16.20;96258.00;;;;5059638;28;20200;-55
2023/06/28 03:54:07;;;;;;;0.90;0.90;;;;;16.30;96249.00;;;;5059007;28;20220;-55
2023/06/28 03:56:34;;;;;;;0.60;0.60;;;;;16.30;96259.00;;;;5059098;28;20192;-55
2023/06/28 03:59:04;;;;;;;0.97;0.97;;;;;16.40;96255.00;;;;5059078;28;20215;-55
2023/06/28 04:01:32;;;;;;;1.23;1.13;;;;;16.40;96253.00;;;;5059190;28;20282;-55
2023/06/28 04:04:00;;;;;;;0.93;0.87;;;;;16.30;96250.00;;;;5058967;28;20256;-55
2023/06/28 04:06:27;;;;;;;0.87;0.87;;;;;16.50;96258.00;;;;5058952;28;20188;-60
2023/06/28 04:08:55;;;;;;;0.70;0.70;;;;;16.50;96256.00;;;;5058893;28;20204;-56
2023/06/28 04:11:22;;;;;;;0.60;0.60;;;;;16.40;96251.00;;;;5058964;28;20246;-55
2023/06/28 04:13:49;;;;;;;0.70;0.70;;;;;16.40;96257.00;;;;5059261;28;20689;-56
2023/06/28 04:16:18;;;;;;;0.63;0.63;;;;;16.40;96261.00;;;;5058846;28;20192;-59
2023/06/28 04:18:46;;;;;;;0.70;0.70;;;;;16.50;96255.00;;;;5058884;28;20222;-56
2023/06/28 04:21:13;;;;;;;0.90;0.90;;;;;16.60;96256.00;;;;5059015;28;20273;-56
2023/06/28 04:23:40;;;;;;;0.70;0.70;;;;;16.70;96255.00;;;;5058713;28;20273;-55
2023/06/28 04:26:08;;;;;;;1.00;0.97;;;;;16.80;96259.00;;;;5058838;28;20192;-55
2023/06/28 04:28:35;;;;;;;0.60;0.60;;;;;16.80;96259.00;;;;5058835;28;20196;-55
2023/06/28 04:31:03;;;;;;;0.57;0.57;;;;;16.80;96252.00;;;;5058818;28;20253;-58
2023/06/28 04:33:35;;;;;;;1.00;0.87;;;;;16.70;96255.00;;;;5058817;28;20212;-55
2023/06/28 04:36:02;;;;;;;0.60;0.60;;;;;16.70;96263.00;;;;5059370;28;20611;-55
2023/06/28 04:38:32;;;;;;;0.50;0.50;;;;;16.60;96264.00;;;;5058807;28;20192;-59
2023/06/28 04:41:00;;;;;;;0.60;0.60;;;;;16.60;96269.00;;;;5057195;28;20748;-56
2023/06/28 04:43:27;;;;;;;0.70;0.70;;;;;16.70;96260.00;;;;5055371;28;20295;-56
2023/06/28 04:45:55;;;;;;;0.77;0.77;;;;;16.70;96259.00;;;;5055556;28;20531;-56
2023/06/28 04:48:23;;;;;;;1.43;1.43;;;;;16.80;96261.00;;;;5055641;28;20196;-55
2023/06/28 04:50:52;;;;;;;0.87;0.87;;;;;16.80;96260.00;;;;5055463;28;20449;-55
2023/06/28 04:53:19;;;;;;;0.90;0.90;;;;;16.90;96262.00;;;;5055404;28;20219;-55
2023/06/28 04:55:48;;;;;;;0.60;0.60;;;;;16.90;96267.00;;;;5055536;28;20215;-55
2023/06/28 04:58:15;;;;;;;0.60;0.60;;;;;16.90;96261.00;;;;5055395;28;20203;-55
2023/06/28 05:00:43;;;;;;;0.60;0.60;;;;;17.00;96271.00;;;;5055240;28;20251;-55
2023/06/28 05:03:14;;;;;;;0.60;0.60;;;;;17.10;96261.00;;;;5055515;28;20586;-55
2023/06/28 05:05:42;;;;;;;1.60;0.80;;;;;16.90;96263.00;;;;5055208;28;20189;-55
2023/06/28 05:08:11;;;;;;;1.03;1.03;;;;;17.10;96258.00;;;;5055109;28;20614;-55
2023/06/28 05:10:38;;;;;;;1.57;1.47;;;;;16.80;96258.00;;;;5055360;28;20188;-55
2023/06/28 05:13:05;;;;;;;0.83;0.83;;;;;16.70;96262.00;;;;5055412;28;20196;-55
2023/06/28 05:15:34;;;;;;;0.60;0.60;;;;;17.00;96261.00;;;;5054922;28;20610;-55
2023/06/28 05:18:02;;;;;;;0.80;0.80;;;;;17.00;96262.00;;;;5055220;28;20192;-56
2023/06/28 05:20:29;;;;;;;1.23;1.13;;;;;17.10;96260.00;;;;5054733;28;20274;-55
2023/06/28 05:23:12;;;;;;;0.50;0.50;;;;;17.10;96254.00;;;;5055208;28;20219;-55
2023/06/28 05:25:40;;;;;;;1.23;1.23;;;;;17.20;96250.00;;;;5055024;28;20542;-55
2023/06/28 05:28:08;;;;;;;1.20;1.10;;;;;17.30;96254.00;;;;5054687;28;20659;-55
2023/06/28 05:30:35;;;;;;;0.70;0.70;;;;;17.30;96256.00;;;;5054599;28;20598;-55
2023/06/28 05:33:03;;;;;;;0.70;0.70;;;;;17.50;96257.00;;;;5054754;28;20203;-55
2023/06/28 05:35:32;;;;;;;0.80;0.80;;;;;17.40;96257.00;;;;5054539;28;20266;-55
2023/06/28 05:38:00;;;;;;;0.90;0.90;;;;;17.30;96252.00;;;;5054795;28;20211;-55
2023/06/28 05:40:29;;;;;;;14.20;0.90;;;;;17.30;96253.00;;;;5054815;28;20213;-56
2023/06/28 05:42:58;;;;;;;0.77;0.77;;;;;17.50;96257.00;;;;5054145;28;20677;-55
2023/06/28 05:45:26;;;;;;;0.60;0.60;;;;;17.70;96250.00;;;;5054218;28;20277;-55
2023/06/28 05:47:54;;;;;;;2.93;1.10;;;;;17.90;96256.00;;;;5054284;28;20663;-55
2023/06/28 05:50:21;;;;;;;1.90;1.30;;;;;18.00;96257.00;;;;5054237;28;20192;-55
2023/06/28 05:52:49;;;;;;;0.80;0.80;;;;;17.70;96255.00;;;;5054280;28;20211;-55
2023/06/28 05:55:17;;;;;;;0.40;0.40;;;;;17.70;96260.00;;;;5054034;28;20200;-55
2023/06/28 05:57:46;;;;;;;0.73;0.73;;;;;18.00;96254.00;;;;5054102;28;20685;-55
2023/06/28 06:00:15;;;;;;;0.70;0.70;;;;;18.20;96251.00;;;;5053980;28;20269;-56
2023/06/28 06:02:42;;;;;;;1.03;1.03;;;;;18.30;96248.00;;;;5054198;28;20612;-55
2023/06/28 06:05:13;;;;;;;0.50;0.50;;;;;18.50;96263.00;;;;5054381;28;20216;-55
2023/06/28 06:07:41;;;;;;;0.83;0.83;;;;;18.60;96260.00;;;;5054212;28;20540;-55
2023/06/28 06:10:10;;;;;;;0.60;0.60;;;;;18.70;96264.00;;;;5053864;28;20586;-56
2023/06/28 06:12:37;;;;;;;0.80;0.80;;;;;18.80;96258.00;;;;5052559;28;20777;-55
2023/06/28 06:15:08;;;;;;;6.87;0.70;;;;;19.00;96265.00;;;;5053743;28;20709;-55
2023/06/28 06:17:35;;;;;;;1.00;1.00;;;;;18.80;96257.00;;;;5053979;28;20192;-56
2023/06/28 06:20:04;;;;;;;0.90;0.90;;;;;18.70;96264.00;;;;5053625;28;20200;-56
2023/06/28 06:22:32;;;;;;;0.73;0.73;;;;;18.80;96263.00;;;;5053653;28;20196;-57
2023/06/28 06:24:59;;;;;;;0.70;0.70;;;;;18.90;96254.00;;;;5053561;28;20238;-56
2023/06/28 06:27:26;;;;;;;0.70;0.70;;;;;18.90;96256.00;;;;5053522;28;20191;-55
2023/06/28 06:29:54;;;;;;;0.70;0.70;;;;;19.00;96252.00;;;;5053574;28;20192;-55
2023/06/28 06:32:22;;;;;;;0.60;0.60;;;;;18.90;96248.00;;;;5053607;28;20192;-55
2023/06/28 06:34:50;;;;;;;0.90;0.90;;;;;19.00;96248.00;;;;5053596;28;20212;-56
2023/06/28 06:37:17;;;;;;;0.70;0.70;;;;;18.80;96255.00;;;;5053712;28;20575;-55
2023/06/28 06:39:45;;;;;;;0.80;0.80;;;;;18.80;96272.00;;;;5053421;28;20196;-55
2023/06/28 06:42:12;;;;;;;0.90;0.90;;;;;18.90;96268.00;;;;5053151;28;20274;-55
2023/06/28 06:44:40;;;;;;;1.37;1.27;;;;;18.90;96268.00;;;;5053117;28;20219;-55
2023/06/28 06:47:07;;;;;;;6.80;1.17;;;;;19.00;96272.00;;;;5049734;28;20207;-55
2023/06/28 06:49:36;;;;;;;0.60;0.60;;;;;19.10;96274.00;;;;5050199;28;20590;-56
2023/06/28 06:52:04;;;;;;;0.83;0.83;;;;;19.00;96270.00;;;;5051760;28;20196;-56
2023/06/28 06:54:31;;;;;;;1.03;1.03;;;;;19.10;96268.00;;;;5050759;28;20584;-56
2023/06/28 06:57:00;;;;;;;0.87;0.87;;;;;19.00;96259.00;;;;5051518;28;20196;-55
2023/06/28 06:59:27;;;;;;;2.00;0.70;;;;;19.20;96264.00;;;;5051136;28;20203;-55
2023/06/28 07:01:55;;;;;;;1.40;1.37;;;;;19.20;96268.00;;;;5050994;28;20265;-55
2023/06/28 07:04:22;;;;;;;1.00;1.00;;;;;19.20;96275.00;;;;5050320;28;20231;-55
2023/06/28 07:06:51;;;;;;;3.33;1.77;;;;;19.00;96274.00;;;;5050928;28;20196;-55
2023/06/28 07:09:19;;;;;;;0.60;0.60;;;;;19.00;96262.00;;;;5047615;28;20208;-56
2023/06/28 07:11:47;;;;;;;0.90;0.90;;;;;19.00;96273.00;;;;5050434;28;20196;-56
2023/06/28 07:14:14;;;;;;;0.60;0.60;;;;;19.30;96270.00;;;;5050681;28;20212;-56
2023/06/28 07:16:44;;;;;;;0.87;0.87;;;;;19.50;96274.00;;;;5050693;28;20192;-56
2023/06/28 07:19:12;;;;;;;1.37;1.23;;;;;19.70;96280.00;;;;5050733;28;20686;-56
2023/06/28 07:21:39;;;;;;;1.13;1.13;;;;;20.00;96276.00;;;;5050581;28;20212;-56
2023/06/28 07:24:09;;;;;;;0.77;0.77;;;;;20.10;96273.00;;;;5050594;28;20234;-56
2023/06/28 07:26:36;;;;;;;0.73;0.73;;;;;20.20;96269.00;;;;5049554;28;20196;-56
2023/06/28 07:29:04;;;;;;;1.07;1.07;;;;;20.50;96269.00;;;;5050931;28;20196;-56
2023/06/28 07:31:31;;;;;;;1.90;1.53;;;;;20.50;96281.00;;;;5050647;28;20200;-56
2023/06/28 07:34:04;;;;;;;1.70;1.43;;;;;20.70;96279.00;;;;5050923;28;20216;-54
2023/06/28 07:36:31;;;;;;;2.57;1.80;;;;;20.70;96281.00;;;;5050570;28;20192;-57
2023/06/28 07:38:59;;;;;;;0.80;0.80;;;;;20.80;96277.00;;;;5050857;28;20221;-54
2023/06/28 07:41:27;;;;;;;0.43;0.43;;;;;20.80;96285.00;;;;5050395;28;20551;-55
2023/06/28 07:43:55;;;;;;;3.43;1.77;;;;;20.80;96284.00;;;;5050312;28;20239;-56
2023/06/28 07:46:22;;;;;;;0.60;0.60;;;;;20.90;96283.00;;;;5050490;28;20226;-54
2023/06/28 07:48:51;;;;;;;1.00;0.93;;;;;21.10;96287.00;;;;5050723;28;20198;-55
2023/06/28 07:51:18;;;;;;;0.68;0.68;;;;;21.10;96284.00;;;;5050367;28;20192;-55
2023/06/28 07:53:46;;;;;;;0.80;0.80;;;;;21.30;96280.00;;;;5050573;28;20224;-56
2023/06/28 07:56:14;;;;;;;0.50;0.50;;;;;21.40;96274.00;;;;5049907;28;20211;-55
2023/06/28 07:58:43;;;;;;;0.57;0.57;;;;;21.30;96273.00;;;;5050627;28;20196;-54
2023/06/28 08:01:10;;;;;;;1.75;0.88;;;;;21.30;96272.00;;;;5049885;28;20235;-55
2023/06/28 08:03:38;;;;;;;0.77;0.77;;;;;21.40;96270.00;;;;5050057;28;20705;-55
2023/06/28 08:06:05;;;;;;;0.85;0.82;;;;;21.30;96281.00;;;;5049802;28;20254;-59
2023/06/28 08:08:33;;;;;;;0.60;0.60;;;;;21.40;96283.00;;;;5050561;28;20207;-56
2023/06/28 08:11:00;;;;;;;0.77;0.77;;;;;21.60;96273.00;;;;5050495;28;20200;-56
2023/06/28 08:13:27;;;;;;;0.45;0.45;;;;;21.70;96275.00;;;;5050285;28;20227;-56
2023/06/28 08:15:56;;;;;;;0.43;0.43;;;;;21.70;96275.00;;;;5050816;28;20210;-56
2023/06/28 08:18:24;;;;;;;0.50;0.50;;;;;21.60;96270.00;;;;5054434;28;20200;-56
2023/06/28 08:20:53;;;;;;;0.80;0.80;;;;;21.90;96276.00;;;;5053829;28;20255;-55
2023/06/28 08:23:21;;;;;;;0.85;0.85;;;;;22.10;96278.00;;;;5054542;28;20294;-58
2023/06/28 08:25:49;;;;;;;0.47;0.47;;;;;22.00;96280.00;;;;5053754;28;20219;-60
2023/06/28 08:28:16;;;;;;;0.65;0.65;;;;;22.10;96252.00;;;;5048571;28;20754;-56
2023/06/28 08:30:44;;;;;;;2.95;1.38;;;;;22.20;96279.00;;;;5053640;28;20192;-56
2023/06/28 08:33:12;;;;;;;0.73;0.73;;;;;22.30;96275.00;;;;5053130;28;20305;-55
2023/06/28 08:35:40;;;;;;;1.08;0.90;;;;;21.90;96277.00;;;;5048797;28;20196;-55
2023/06/28 08:38:07;;;;;;;0.75;0.75;;;;;21.80;96275.00;;;;5054011;28;20203;-56
2023/06/28 08:40:35;;;;;;;0.73;0.73;;;;;21.90;96277.00;;;;5053321;28;20203;-58
2023/06/28 08:43:03;;;;;;;0.50;0.50;;;;;21.70;96274.00;;;;5053956;28;20350;-55
2023/06/28 08:45:33;;;;;;;1.20;1.05;;;;;22.20;96271.00;;;;5051354;28;20203;-55
2023/06/28 08:48:02;;;;;;;0.93;0.93;;;;;22.50;96263.00;;;;5053781;28;20200;-55
2023/06/28 08:50:31;;;;;;;1.00;1.00;;;;;22.70;96269.00;;;;5052086;28;20279;-55
2023/06/28 08:53:00;;;;;;;1.02;0.93;;;;;22.70;96265.00;;;;5053671;28;20189;-56
2023/06/28 08:55:28;;;;;;;0.82;0.82;;;;;23.00;96267.00;;;;5053359;28;20651;-55
2023/06/28 08:57:57;;;;;;;0.52;0.52;;;;;23.00;96270.00;;;;5053609;28;20195;-56
2023/06/28 09:00:25;;;;;;;0.57;0.57;;;;;22.80;96266.00;;;;5052820;28;20203;-55
2023/06/28 09:02:52;;;;;;;0.68;0.68;;;;;22.30;96264.00;;;;5053009;28;20291;-55
2023/06/28 09:05:21;;;;;;;1.17;1.17;;;;;22.20;96272.00;;;;5053346;28;20204;-55
2023/06/28 09:07:54;;;;;;;0.85;0.85;;;;;21.90;96267.00;;;;5052983;28;20200;-55
2023/06/28 09:10:21;;;;;;;1.00;1.00;;;;;22.20;96276.00;;;;5053029;28;20634;-55
2023/06/28 09:12:50;;;;;;;0.50;0.50;;;;;22.30;96272.00;;;;5053008;28;20206;-56
2023/06/28 09:15:20;;;;;;;0.50;0.50;;;;;22.10;96264.00;;;;5052863;28;20206;-55
2023/06/28 09:17:47;;;;;;;0.70;0.70;;;;;21.80;96264.00;;;;5051772;28;20196;-55
2023/06/28 09:20:19;;;;;;;0.50;0.50;;;;;21.90;96257.00;;;;5052452;28;20246;-54
2023/06/28 09:22:57;;;;;;;1.25;0.85;;;;;22.20;96261.00;;;;5052987;28;20208;-54
2023/06/28 09:25:27;;;;;;;0.40;0.40;;;;;22.50;96267.00;;;;5048858;28;20200;-55
2023/06/28 09:27:55;;;;;;;1.50;1.17;;;;;21.60;96258.00;;;;5050603;28;20208;-56
2023/06/28 09:30:25;;;;;;;1.25;1.15;;;;;21.70;96263.00;;;;5052695;28;20238;-55
2023/06/28 09:32:52;;;;;;;0.85;0.85;;;;;22.20;96265.00;;;;5051115;28;20667;-54
2023/06/28 09:35:21;;;;;;;0.50;0.50;;;;;22.00;96259.00;;;;5052717;28;20192;-56
2023/06/28 09:37:50;;;;;;;0.50;0.50;;;;;22.20;96259.00;;;;5052432;28;20249;-55
2023/06/28 09:40:19;;;;;;;0.55;0.55;;;;;22.40;96260.00;;;;5052408;28;20216;-55
2023/06/28 09:42:47;;;;;;;0.85;0.85;;;;;22.30;96256.00;;;;5052492;28;20224;-57
2023/06/28 09:45:26;;;;;;;0.75;0.75;;;;;22.30;96263.00;;;;5050571;28;20230;-54
2023/06/28 09:47:58;;;;;;;0.55;0.55;;;;;22.00;96256.00;;;;5052184;28;20688;-53
2023/06/28 09:50:39;;;;;;;21.55;1.25;;;;;22.30;96249.00;;;;5052587;28;20193;-54
2023/06/28 09:53:10;;;;;;;0.60;0.60;;;;;22.80;96252.00;;;;5052070;28;20196;-54
2023/06/28 09:55:44;;;;;;;0.65;0.65;;;;;23.20;96244.00;;;;5052129;28;20674;-54
2023/06/28 09:58:13;;;;;;;0.55;0.55;;;;;23.20;96243.00;;;;5052168;28;20192;-54
2023/06/28 10:00:42;;;;;;;0.60;0.60;;;;;23.10;96246.00;;;;5052039;28;20200;-54
2023/06/28 10:03:11;;;;;;;0.82;0.60;;;;;22.50;96246.00;;;;5051944;28;20912;-55
2023/06/28 10:05:40;;;;;;;2.83;1.30;;;;;22.80;96246.00;;;;5050580;28;20249;-54
2023/06/28 10:08:09;;;;;;;0.57;0.57;;;;;22.50;96255.00;;;;5052264;28;20207;-54
2023/06/28 10:10:38;;;;;;;0.68;0.68;;;;;22.60;96256.00;;;;5051613;28;20207;-54
2023/06/28 10:13:09;;;;;;;0.70;0.70;;;;;22.80;96257.00;;;;5051966;28;20192;-54
2023/06/28 10:15:44;;;;;;;0.55;0.55;;;;;23.40;96249.00;;;;5050188;28;20678;-56
2023/06/28 10:18:13;;;;;;;0.50;0.50;;;;;23.00;96250.00;;;;5051938;28;20290;-54
2023/06/28 10:20:41;;;;;;;0.60;0.60;;;;;23.30;96241.00;;;;5051652;28;20663;-55
2023/06/28 10:23:11;;;;;;;0.60;0.60;;;;;23.30;96233.00;;;;5052012;28;20648;-56
2023/06/28 10:25:40;;;;;;;0.45;0.45;;;;;24.10;96229.00;;;;5051055;28;20393;-55
2023/06/28 10:28:09;;;;;;;0.60;0.60;;;;;24.40;96239.00;;;;5051806;28;20681;-55
2023/06/28 10:30:36;;;;;;;0.85;0.85;;;;;23.50;96235.00;;;;5048494;28;20510;-55
2023/06/28 10:33:05;;;;;;;0.90;0.90;;;;;24.10;96242.00;;;;5051578;28;20196;-55
2023/06/28 10:35:33;;;;;;;0.77;0.77;;;;;23.40;96237.00;;;;5051194;28;20196;-56
2023/06/28 10:38:01;;;;;;;0.90;0.75;;;;;23.50;96230.00;;;;5051393;28;20204;-56
2023/06/28 10:40:29;;;;;;;0.57;0.57;;;;;23.40;96237.00;;;;5050356;28;20204;-56
2023/06/28 10:42:56;;;;;;;0.52;0.52;;;;;24.00;96236.00;;;;5051042;28;20253;-57
2023/06/28 10:45:38;;;;;;;0.60;0.60;;;;;24.00;96238.00;;;;5050850;28;20200;-55
2023/06/28 10:48:06;;;;;;;0.70;0.70;;;;;24.10;96244.00;;;;5051506;28;20203;-55
2023/06/28 10:50:41;;;;;;;0.30;0.30;;;;;24.30;96236.00;;;;5050969;28;20222;-57
2023/06/28 10:53:20;;;;;;;1.40;1.30;;;;;24.70;96219.00;;;;5050853;28;20223;-56
2023/06/28 10:56:12;;;;;;;0.90;0.90;;;;;25.20;96223.00;;;;5051360;28;20291;-55
2023/06/28 10:58:40;;;;;;;0.52;0.52;;;;;24.90;96236.00;;;;5045082;28;20693;-54
2023/06/28 11:01:10;;;;;;;0.73;0.73;;;;;24.40;96238.00;;;;5051106;28;20191;-55
2023/06/28 11:03:42;;;;;;;0.88;0.88;;;;;24.60;96235.00;;;;5050751;28;20756;-55
2023/06/28 11:06:10;;;;;;;0.47;0.47;;;;;24.60;96231.00;;;;5049527;28;20204;-56
2023/06/28 11:08:39;;;;;;;1.23;0.85;;;;;24.00;96232.00;;;;5051516;28;20560;-56
2023/06/28 11:11:08;;;;;;;1.05;1.05;;;;;23.60;96228.00;;;;5049621;28;20250;-56
2023/06/28 11:13:46;;;;;;;0.68;0.68;;;;;23.30;96241.00;;;;5049761;28;20246;-55
2023/06/28 11:16:19;;;;;;;0.68;0.68;;;;;23.20;96239.00;;;;5050594;28;20691;-55
2023/06/28 11:18:47;;;;;;;0.90;0.90;;;;;23.40;96251.00;;;;5049945;28;20213;-55
2023/06/28 11:21:16;;;;;;;0.60;0.60;;;;;22.40;96248.00;;;;5050365;28;20250;-54
2023/06/28 11:23:46;;;;;;;2.30;1.48;;;;;22.40;96249.00;;;;5050838;28;20220;-55
2023/06/28 11:26:16;;;;;;;0.80;0.80;;;;;22.70;96242.00;;;;5050059;28;20200;-55
2023/06/28 11:28:51;;;;;;;0.80;0.80;;;;;22.50;96246.00;;;;5051134;28;20200;-55
2023/06/28 11:31:21;;;;;;;0.40;0.40;;;;;23.20;96240.00;;;;5050765;28;20195;-55
2023/06/28 11:33:50;;;;;;;0.50;0.50;;;;;23.70;96232.00;;;;5050504;28;20220;-55
2023/06/28 11:36:18;;;;;;;0.50;0.50;;;;;23.90;96233.00;;;;5049274;28;20200;-56
2023/06/28 11:38:46;;;;;;;0.80;0.80;;;;;24.30;96228.00;;;;5050578;28;20204;-56
2023/06/28 11:41:16;;;;;;;0.63;0.63;;;;;24.30;96223.00;;;;5050713;28;20218;-56
2023/06/28 11:43:46;;;;;;;0.50;0.50;;;;;23.60;96235.00;;;;5050296;28;20298;-56
2023/06/28 11:46:19;;;;;;;0.73;0.73;;;;;23.80;96238.00;;;;5050532;28;20196;-56
2023/06/28 11:48:47;;;;;;;0.60;0.60;;;;;23.60;96240.00;;;;5050528;28;20215;-56
2023/06/28 11:51:15;;;;;;;0.90;0.90;;;;;24.10;96241.00;;;;5052247;28;20199;-56
2023/06/28 11:53:47;;;;;;;0.82;0.82;;;;;23.40;96230.00;;;;5054172;28;20718;-56
2023/06/28 11:56:14;;;;;;;0.60;0.60;;;;;23.70;96219.00;;;;5053213;28;20202;-56
2023/06/28 11:58:42;;;;;;;0.80;0.80;;;;;24.30;96234.00;;;;5054472;28;20218;-56
2023/06/28 12:01:22;;;;;;;0.70;0.70;;;;;24.60;96234.00;;;;5054386;28;20200;-56
2023/06/28 12:03:50;;;;;;;0.60;0.60;;;;;24.60;96216.00;;;;5054216;28;20223;-56
2023/06/28 12:06:17;;;;;;;0.57;0.57;;;;;25.40;96207.00;;;;5054210;28;20199;-56
2023/06/28 12:08:45;;;;;;;0.70;0.70;;;;;25.90;96231.00;;;;5054158;28;20242;-56
2023/06/28 12:11:14;;;;;;;2.53;1.02;;;;;25.30;96232.00;;;;5054822;28;20204;-56
2023/06/28 12:13:42;;;;;;;0.65;0.65;;;;;24.90;96201.00;;;;5050796;28;20238;-56
2023/06/28 12:16:14;;;;;;;0.57;0.57;;;;;25.60;96219.00;;;;5054324;28;20196;-56
2023/06/28 12:18:58;;;;;;;0.60;0.60;;;;;25.10;96229.00;;;;5054116;28;20220;-56
2023/06/28 12:21:26;;;;;;;0.70;0.70;;;;;25.20;96213.00;;;;5054509;28;20194;-56
2023/06/28 12:23:55;;;;;;;0.70;0.70;;;;;26.00;96209.00;;;;5051617;28;20684;-56
2023/06/28 12:26:24;;;;;;;0.50;0.50;;;;;26.60;96207.00;;;;5054826;28;20709;-56